Time;durP1;ratioP1;P1;durP2;ratioP2;P2;SDS_P1;SDS_P2;PMS_P1;PMS_P2;Temp;Humidity;BMP_temperature;BMP_pressure;BME280_temperature;BME280_humidity;BME280_pressure;Samples;Min_cycle;Max_cycle;Signal;HPM_P1;HPM_P2
2023/06/11 00:00:04;;;;;;;3.22;2.45;;;;;;;26.74;42.72;101680.25;5001666;28;20322;-32
2023/06/11 00:02:33;;;;;;;3.15;2.10;;;;;;;26.73;42.74;101669.53;5005776;28;20446;-32
2023/06/11 00:05:04;;;;;;;2.88;2.22;;;;;;;26.71;42.98;101672.47;4999862;28;20066;-32
2023/06/11 00:07:30;;;;;;;2.78;1.95;;;;;;;26.71;42.93;101672.47;5003893;28;20334;-32
2023/06/11 00:09:57;;;;;;;2.28;2.08;;;;;;;26.69;43.03;101674.53;5007404;28;20367;-32
2023/06/11 00:12:23;;;;;;;2.13;1.88;;;;;;;26.69;42.88;101668.25;4994966;28;20145;-32
2023/06/11 00:14:50;;;;;;;2.92;2.15;;;;;;;26.67;43.02;101670.31;4995998;28;20045;-32
2023/06/11 00:17:17;;;;;;;1.98;1.80;;;;;;;26.66;43.08;101676.81;5024045;28;20104;-32
2023/06/11 00:19:44;;;;;;;3.45;2.03;;;;;;;26.65;43.15;101669.66;4996113;28;20065;-32
2023/06/11 00:22:12;;;;;;;2.50;2.20;;;;;;;26.65;43.00;101677.81;4993116;28;20105;-32
2023/06/11 00:24:38;;;;;;;2.75;2.10;;;;;;;26.63;43.10;101669.88;4997234;28;20417;-32
2023/06/11 00:27:06;;;;;;;2.30;1.80;;;;;;;26.61;43.25;101661.03;4995760;28;20388;-32
2023/06/11 00:29:32;;;;;;;2.80;2.30;;;;;;;26.60;43.24;101659.34;4997042;28;20438;-32
2023/06/11 00:31:59;;;;;;;3.67;2.20;;;;;;;26.59;43.07;101657.69;4995766;28;20085;-32
2023/06/11 00:34:26;;;;;;;3.13;2.28;;;;;;;26.56;43.28;101658.06;4997692;28;20046;-33
2023/06/11 00:36:53;;;;;;;2.55;2.03;;;;;;;26.54;43.02;101658.25;4995111;28;20046;-32
2023/06/11 00:39:19;;;;;;;2.50;2.17;;;;;;;26.54;43.15;101654.69;4996471;28;20089;-32
2023/06/11 00:41:48;;;;;;;2.75;2.17;;;;;;;26.53;43.03;101648.44;4997429;28;20046;-32
2023/06/11 00:44:21;;;;;;;3.58;1.85;;;;;;;26.50;43.34;101647.97;4997331;28;20088;-32
2023/06/11 00:46:51;;;;;;;2.53;1.98;;;;;;;26.49;43.28;101654.41;4997720;28;20112;-32
2023/06/11 00:49:18;;;;;;;3.08;2.50;;;;;;;26.48;42.85;101658.16;4998275;28;20045;-33
2023/06/11 00:51:45;;;;;;;3.25;2.28;;;;;;;26.45;43.29;101648.50;5007479;28;20352;-32
2023/06/11 00:54:13;;;;;;;4.13;2.08;;;;;;;26.43;43.36;101642.41;4998276;28;20123;-32
2023/06/11 00:56:41;;;;;;;4.07;2.17;;;;;;;26.42;43.44;101645.31;4997871;28;20118;-33
2023/06/11 00:59:08;;;;;;;3.25;2.20;;;;;;;26.41;43.38;101638.16;4996198;28;20054;-32
2023/06/11 01:01:41;;;;;;;3.13;2.30;;;;;;;26.39;43.44;101645.69;5001792;28;20115;-32
2023/06/11 01:04:17;;;;;;;2.67;2.30;;;;;;;26.37;43.30;101635.00;4998363;28;20340;-32
2023/06/11 01:06:49;;;;;;;2.78;2.25;;;;;;;26.36;43.53;101636.03;4998134;28;20069;-32
2023/06/11 01:09:22;;;;;;;3.42;2.40;;;;;;;26.34;43.38;101643.53;4996075;28;20053;-32
2023/06/11 01:11:49;;;;;;;3.60;2.40;;;;;;;26.34;43.39;101646.25;4995454;28;20121;-32
2023/06/11 01:14:17;;;;;;;5.15;2.40;;;;;;;26.32;43.44;101646.44;4993511;28;20050;-32
2023/06/11 01:16:47;;;;;;;2.78;2.30;;;;;;;26.31;43.69;101649.34;4996199;28;20058;-32
2023/06/11 01:19:52;;;;;;;3.35;2.25;;;;;;;26.28;43.64;101647.84;4991913;28;20078;-32
2023/06/11 01:22:29;;;;;;;2.92;2.30;;;;;;;26.26;43.73;101647.22;4992005;28;20050;-32
2023/06/11 01:25:20;;;;;;;3.05;2.22;;;;;;;26.24;44.04;101648.41;5000360;28;20319;-32
2023/06/11 01:28:05;;;;;;;3.17;2.38;;;;;;;26.23;43.62;101652.19;5015154;28;20078;-32
2023/06/11 01:30:36;;;;;;;3.88;2.22;;;;;;;26.21;43.64;101655.09;5002922;28;20046;-32
2023/06/11 01:33:03;;;;;;;3.08;2.22;;;;;;;26.19;43.84;101650.88;5001226;28;20105;-32
2023/06/11 01:35:30;;;;;;;2.90;2.05;;;;;;;26.17;43.64;101656.50;5001642;28;20050;-33
2023/06/11 01:37:58;;;;;;;3.22;2.13;;;;;;;26.17;43.76;101652.91;5002650;28;20050;-32
2023/06/11 01:40:26;;;;;;;2.97;2.10;;;;;;;26.13;43.59;101652.47;5007382;28;20109;-32
2023/06/11 01:42:56;;;;;;;2.85;2.25;;;;;;;26.14;43.78;101658.75;5009959;28;20050;-32
2023/06/11 01:45:24;;;;;;;3.60;2.35;;;;;;;26.12;43.78;101658.06;4999359;28;20114;-32
2023/06/11 01:47:51;;;;;;;3.00;2.35;;;;;;;26.09;43.60;101652.00;5006918;28;20049;-32
2023/06/11 01:50:19;;;;;;;4.35;2.50;;;;;;;26.08;43.95;101650.28;5006844;28;20101;-32
2023/06/11 01:52:46;;;;;;;3.20;2.10;;;;;;;26.07;43.93;101647.78;5008024;28;20350;-32
2023/06/11 01:55:12;;;;;;;2.42;2.15;;;;;;;26.04;44.04;101643.53;5008374;28;20046;-32
2023/06/11 01:57:40;;;;;;;2.50;2.30;;;;;;;26.02;44.14;101640.19;5006712;28;20077;-33
2023/06/11 02:00:10;;;;;;;3.55;2.40;;;;;;;26.01;43.97;101637.63;5007036;28;20095;-32
2023/06/11 02:02:43;;;;;;;3.35;2.20;;;;;;;25.99;44.12;101651.44;5004387;28;20046;-32
2023/06/11 02:05:10;;;;;;;2.55;2.25;;;;;;;25.98;44.12;101649.75;5002816;28;20045;-33
2023/06/11 02:07:37;;;;;;;3.35;2.00;;;;;;;25.98;44.29;101643.47;5005091;28;20081;-32
2023/06/11 02:10:04;;;;;;;2.90;2.30;;;;;;;25.97;44.22;101652.63;5005082;28;20082;-32
2023/06/11 02:12:31;;;;;;;3.72;2.45;;;;;;;25.96;44.33;101651.78;4996859;28;20061;-32
2023/06/11 02:14:57;;;;;;;3.08;2.50;;;;;;;25.94;44.05;101651.16;5000736;28;20136;-32
2023/06/11 02:17:24;;;;;;;2.38;2.00;;;;;;;25.93;44.49;101649.47;4997098;28;20100;-32
2023/06/11 02:19:51;;;;;;;3.55;2.85;;;;;;;25.92;44.27;101653.19;4994424;28;20045;-32
2023/06/11 02:22:17;;;;;;;3.00;2.28;;;;;;;25.92;44.27;101649.63;5000088;28;20144;-32
2023/06/11 02:24:44;;;;;;;3.15;2.78;;;;;;;25.91;44.29;101646.09;5001025;28;20136;-33
2023/06/11 02:27:11;;;;;;;3.65;2.20;;;;;;;25.88;44.07;101641.00;4996959;28;20107;-33
2023/06/11 02:29:37;;;;;;;3.88;2.60;;;;;;;25.89;44.13;101641.84;4996264;28;20050;-32
2023/06/11 02:32:06;;;;;;;2.90;2.40;;;;;;;25.88;44.24;101637.47;4999236;28;20108;-32
2023/06/11 02:34:33;;;;;;;2.92;2.25;;;;;;;25.88;44.41;101642.91;4996879;28;20069;-32
2023/06/11 02:36:59;;;;;;;2.83;2.30;;;;;;;25.87;44.60;101647.50;4999301;28;20148;-32
2023/06/11 02:39:26;;;;;;;4.53;2.50;;;;;;;25.86;44.56;101639.53;4996697;28;20149;-32
2023/06/11 02:41:53;;;;;;;3.20;2.53;;;;;;;25.86;44.52;101639.53;4997351;28;20054;-33
2023/06/11 02:44:21;;;;;;;4.15;2.35;;;;;;;25.86;44.55;101644.97;4993062;28;20298;-32
2023/06/11 02:46:48;;;;;;;2.70;2.17;;;;;;;25.85;44.39;101633.25;5000678;28;20050;-33
2023/06/11 02:49:14;;;;;;;3.50;2.58;;;;;;;25.84;44.56;101631.56;4996832;28;20631;-32
2023/06/11 02:51:41;;;;;;;3.35;2.55;;;;;;;25.84;44.60;101632.41;4999386;28;20050;-32
2023/06/11 02:54:08;;;;;;;5.10;2.80;;;;;;;25.84;44.25;101637.00;5003505;28;20312;-32
2023/06/11 02:56:34;;;;;;;3.25;2.35;;;;;;;25.85;44.50;101641.41;5003025;28;20085;-32
2023/06/11 02:59:01;;;;;;;2.75;2.38;;;;;;;25.84;44.39;101639.69;5000383;28;20498;-33
2023/06/11 03:01:28;;;;;;;3.67;2.55;;;;;;;25.84;44.61;101637.81;5006594;28;20116;-33
2023/06/11 03:03:54;;;;;;;4.40;2.40;;;;;;;25.84;44.60;101629.69;5000458;28;20050;-33
2023/06/11 03:06:21;;;;;;;3.90;2.78;;;;;;;25.83;44.48;101624.44;5002425;28;20450;-32
2023/06/11 03:08:48;;;;;;;2.75;2.13;;;;;;;25.83;44.32;101628.00;5002234;28;20128;-32
2023/06/11 03:11:15;;;;;;;3.25;2.80;;;;;;;25.84;44.40;101621.53;5002818;28;20145;-32
2023/06/11 03:13:41;;;;;;;3.75;2.50;;;;;;;25.83;44.53;101625.28;5002524;28;20057;-32
2023/06/11 03:16:08;;;;;;;3.42;2.53;;;;;;;25.83;44.32;101627.16;5003796;28;20455;-31
2023/06/11 03:18:35;;;;;;;4.20;2.60;;;;;;;25.82;44.25;101622.75;5003713;28;20395;-32
2023/06/11 03:21:01;;;;;;;3.63;2.53;;;;;;;25.82;44.67;101633.63;5004331;28;20093;-32
2023/06/11 03:23:28;;;;;;;3.53;2.70;;;;;;;25.81;44.28;101637.38;5034109;28;20128;-32
2023/06/11 03:25:55;;;;;;;3.10;2.38;;;;;;;25.81;44.56;101646.38;5001341;28;20085;-32
2023/06/11 03:28:22;;;;;;;2.97;2.55;;;;;;;25.82;44.55;101644.50;5003464;28;20054;-32
2023/06/11 03:30:48;;;;;;;3.35;2.38;;;;;;;25.81;44.60;101653.69;5003486;28;20101;-32
2023/06/11 03:33:15;;;;;;;3.50;2.47;;;;;;;25.81;44.46;101650.97;5002786;28;20089;-34
2023/06/11 03:35:41;;;;;;;2.78;2.50;;;;;;;25.80;44.50;101641.94;5000648;28;20050;-32
2023/06/11 03:38:08;;;;;;;3.80;2.47;;;;;;;25.79;44.62;101644.84;4993138;28;20430;-32
2023/06/11 03:40:34;;;;;;;3.05;2.30;;;;;;;25.80;44.67;101641.94;5032617;28;20137;-32
2023/06/11 03:43:01;;;;;;;3.35;2.35;;;;;;;25.80;44.59;101646.53;5002041;28;20489;-32
2023/06/11 03:45:27;;;;;;;3.95;2.75;;;;;;;25.80;44.28;101660.13;4999797;28;20387;-33
2023/06/11 03:47:56;;;;;;;2.65;2.25;;;;;;;25.78;44.61;101657.59;5001951;28;20046;-32
2023/06/11 03:50:23;;;;;;;3.47;2.35;;;;;;;25.80;44.51;101651.97;4999260;28;20054;-32
2023/06/11 03:52:49;;;;;;;3.65;2.65;;;;;;;25.79;44.43;101653.84;5030522;28;20081;-33
2023/06/11 03:55:16;;;;;;;3.55;2.85;;;;;;;25.79;44.65;101656.56;4999205;28;20087;-32
2023/06/11 03:57:43;;;;;;;4.70;2.25;;;;;;;25.79;44.76;101667.41;4998578;28;20086;-32
2023/06/11 04:00:10;;;;;;;2.90;2.38;;;;;;;25.79;44.45;101656.56;5001986;28;20042;-32
2023/06/11 04:02:37;;;;;;;3.92;2.75;;;;;;;25.78;44.76;101649.44;5002225;28;20058;-33
2023/06/11 04:05:04;;;;;;;2.88;2.35;;;;;;;25.78;44.72;101656.75;4994686;28;20125;-32
2023/06/11 04:07:30;;;;;;;3.65;2.80;;;;;;;25.78;44.50;101660.31;4996614;28;20365;-32
2023/06/11 04:09:57;;;;;;;3.13;2.72;;;;;;;25.78;44.77;101664.91;5001636;28;20058;-32
2023/06/11 04:12:25;;;;;;;3.78;2.60;;;;;;;25.77;44.80;101658.63;5005914;28;20081;-33
2023/06/11 04:14:52;;;;;;;3.08;2.38;;;;;;;25.77;44.25;101661.34;4997530;28;20050;-33
2023/06/11 04:17:18;;;;;;;3.83;2.53;;;;;;;25.76;44.36;101662.31;5000936;28;20068;-32
2023/06/11 04:19:45;;;;;;;4.47;2.70;;;;;;;25.77;44.62;101655.91;4996023;28;20046;-32
2023/06/11 04:22:12;;;;;;;4.13;2.70;;;;;;;25.78;44.73;101659.47;5001522;28;20132;-33
2023/06/11 04:24:38;;;;;;;2.70;2.42;;;;;;;25.78;44.45;101662.19;5028898;28;20069;-32
2023/06/11 04:27:06;;;;;;;2.53;2.28;;;;;;;25.78;44.63;101654.88;4999821;28;20105;-32
2023/06/11 04:29:33;;;;;;;4.55;3.28;;;;;;;25.78;44.75;101654.03;4996595;28;20051;-32
2023/06/11 04:32:03;;;;;;;3.67;3.10;;;;;;;25.80;44.71;101660.13;4998749;28;20054;-32
2023/06/11 04:34:30;;;;;;;4.10;2.50;;;;;;;25.80;44.68;101662.84;4996784;28;20052;-33
2023/06/11 04:36:57;;;;;;;3.35;2.40;;;;;;;25.81;44.58;101668.09;4996344;28;20057;-32
2023/06/11 04:39:24;;;;;;;3.20;2.50;;;;;;;25.81;44.66;101664.53;4991738;28;20054;-32
2023/06/11 04:41:51;;;;;;;3.50;2.50;;;;;;;25.82;44.56;101658.06;5000210;28;20050;-32
2023/06/11 04:44:20;;;;;;;2.88;2.47;;;;;;;25.83;44.68;101657.03;4991167;28;20050;-33
2023/06/11 04:46:47;;;;;;;4.60;3.10;;;;;;;25.84;44.70;101659.56;5000500;28;20050;-32
2023/06/11 04:49:20;;;;;;;2.80;2.28;;;;;;;25.87;44.40;101652.06;4997290;28;20376;-32
2023/06/11 04:51:48;;;;;;;3.58;2.63;;;;;;;25.89;44.40;101652.72;4999893;28;20346;-32
2023/06/11 04:54:17;;;;;;;3.38;2.33;;;;;;;25.92;44.68;101655.06;5000747;28;20116;-32
2023/06/11 04:56:44;;;;;;;3.50;2.88;;;;;;;25.94;44.41;101659.31;5006717;28;20141;-32
2023/06/11 04:59:11;;;;;;;4.03;2.67;;;;;;;25.97;44.21;101658.06;4998938;28;20253;-32
2023/06/11 05:01:46;;;;;;;3.72;2.80;;;;;;;25.99;44.29;101659.56;5000690;28;20057;-32
2023/06/11 05:04:14;;;;;;;3.47;2.75;;;;;;;26.03;44.27;101657.34;4998299;28;20061;-32
2023/06/11 05:06:48;;;;;;;3.85;2.88;;;;;;;26.04;44.13;101659.84;5000766;28;20053;-32
2023/06/11 05:09:15;;;;;;;3.80;2.78;;;;;;;26.06;44.25;101656.97;4998627;28;20054;-32
2023/06/11 05:11:43;;;;;;;2.70;2.30;;;;;;;26.08;44.17;101647.56;4998802;28;20057;-33
2023/06/11 05:14:11;;;;;;;3.80;2.67;;;;;;;26.10;44.42;101652.84;4999859;28;20067;-32
2023/06/11 05:16:38;;;;;;;2.85;2.55;;;;;;;26.12;44.17;101652.63;5002739;28;20093;-32
2023/06/11 05:19:06;;;;;;;3.30;2.45;;;;;;;26.14;44.21;101654.16;5002494;28;20401;-32
2023/06/11 05:21:33;;;;;;;4.50;2.80;;;;;;;26.17;44.33;101652.91;5000871;28;20521;-32
2023/06/11 05:24:06;;;;;;;3.72;2.78;;;;;;;26.17;44.02;101656.50;5001918;28;20086;-32
2023/06/11 05:26:37;;;;;;;3.10;2.35;;;;;;;26.19;44.28;101659.84;5031016;28;20133;-32
2023/06/11 05:29:04;;;;;;;3.22;2.63;;;;;;;26.21;43.99;101651.50;4994813;28;20315;-32
2023/06/11 05:31:31;;;;;;;3.58;2.63;;;;;;;26.21;44.12;101660.53;4998457;28;20088;-32
2023/06/11 05:33:57;;;;;;;2.85;2.28;;;;;;;26.24;44.14;101656.56;4998067;28;20054;-32
2023/06/11 05:36:25;;;;;;;2.70;2.35;;;;;;;26.26;43.96;101662.66;4997711;28;20350;-32
2023/06/11 05:38:52;;;;;;;3.17;2.65;;;;;;;26.27;43.83;101656.19;4997030;28;20057;-32
2023/06/11 05:41:19;;;;;;;3.72;2.60;;;;;;;26.27;43.85;101665.19;4996348;28;20113;-34
2023/06/11 05:43:46;;;;;;;3.47;2.72;;;;;;;26.28;44.09;101664.16;5004844;28;20360;-32
2023/06/11 05:46:14;;;;;;;4.03;2.60;;;;;;;26.30;44.03;101666.69;5006692;28;20060;-32
2023/06/11 05:48:41;;;;;;;3.42;3.00;;;;;;;26.31;43.83;101668.38;5011098;28;20392;-32
2023/06/11 05:51:09;;;;;;;3.20;2.70;;;;;;;26.32;43.75;101672.78;5010813;28;20045;-32
2023/06/11 05:53:36;;;;;;;2.92;2.28;;;;;;;26.33;43.87;101679.88;5010046;28;20395;-33
2023/06/11 05:56:04;;;;;;;3.17;2.88;;;;;;;26.34;44.23;101674.28;5010798;28;20141;-32
2023/06/11 05:58:33;;;;;;;4.40;2.92;;;;;;;26.34;43.71;101674.28;5007926;28;20057;-32
2023/06/11 06:01:04;;;;;;;2.88;2.45;;;;;;;26.36;43.81;101675.97;5011181;28;20393;-32
2023/06/11 06:03:32;;;;;;;2.88;2.58;;;;;;;26.36;43.73;101676.81;5006222;28;20054;-32
2023/06/11 06:06:03;;;;;;;4.35;2.80;;;;;;;26.37;43.69;101677.63;4994024;28;20046;-32
2023/06/11 06:08:30;;;;;;;2.85;2.58;;;;;;;26.37;43.93;101675.75;5007425;28;20136;-32
2023/06/11 06:10:57;;;;;;;3.25;2.83;;;;;;;26.37;43.80;101678.47;4998734;28;20133;-32
2023/06/11 06:13:25;;;;;;;2.97;2.47;;;;;;;26.38;43.90;101677.47;4996227;28;20112;-32
2023/06/11 06:15:55;;;;;;;3.00;2.65;;;;;;;26.38;43.61;101693.78;4995034;28;20315;-32
2023/06/11 06:18:22;;;;;;;3.20;2.67;;;;;;;26.39;43.97;101684.59;5003030;28;20145;-33
2023/06/11 06:20:49;;;;;;;3.63;2.85;;;;;;;26.40;43.84;101688.16;4998596;28;20116;-32
2023/06/11 06:23:16;;;;;;;3.42;3.10;;;;;;;26.39;43.90;101684.59;4997598;28;20112;-32
2023/06/11 06:25:43;;;;;;;5.43;2.85;;;;;;;26.39;43.89;101684.59;5000129;28;20644;-32
2023/06/11 06:28:09;;;;;;;3.60;2.75;;;;;;;26.41;43.87;101687.09;4997519;28;20054;-32
2023/06/11 06:30:38;;;;;;;4.25;2.70;;;;;;;26.41;43.97;101687.09;4996973;28;20050;-32
2023/06/11 06:33:05;;;;;;;3.13;2.55;;;;;;;26.41;43.76;101690.66;4999972;28;20112;-32
2023/06/11 06:35:32;;;;;;;3.20;2.70;;;;;;;26.41;43.89;101690.66;4997147;28;20057;-32
2023/06/11 06:38:02;;;;;;;4.75;2.92;;;;;;;26.42;43.69;101696.97;4999654;28;20089;-33
2023/06/11 06:40:28;;;;;;;3.67;3.25;;;;;;;26.42;43.64;101697.81;5009718;28;20382;-32
2023/06/11 06:42:55;;;;;;;4.43;2.80;;;;;;;26.42;43.78;101695.09;5002598;28;20089;-32
2023/06/11 06:45:22;;;;;;;5.03;3.17;;;;;;;26.42;43.75;101689.66;4998539;28;20100;-32
2023/06/11 06:47:48;;;;;;;4.00;3.10;;;;;;;26.43;43.73;101702.22;5000930;28;20050;-32
2023/06/11 06:50:15;;;;;;;4.00;3.28;;;;;;;26.44;43.80;101695.72;4997449;28;20490;-32
2023/06/11 06:52:42;;;;;;;4.55;2.80;;;;;;;26.45;43.90;101692.00;4998424;28;20081;-32
2023/06/11 06:55:08;;;;;;;3.38;2.85;;;;;;;26.45;43.64;101689.28;4998739;28;20092;-32
2023/06/11 06:57:35;;;;;;;5.18;3.50;;;;;;;26.45;43.69;101694.72;4996275;28;20112;-32
2023/06/11 07:00:04;;;;;;;4.60;3.05;;;;;;;26.46;43.64;101687.44;4996356;28;20130;-32
2023/06/11 07:02:31;;;;;;;5.70;3.33;;;;;;;26.46;43.75;101692.88;5000860;28;20042;-32
2023/06/11 07:04:58;;;;;;;3.58;3.05;;;;;;;26.46;43.82;101690.16;4995456;28;20046;-31
2023/06/11 07:07:25;;;;;;;4.00;3.47;;;;;;;26.45;43.76;101694.72;5000068;28;20125;-33
2023/06/11 07:09:51;;;;;;;3.50;2.95;;;;;;;26.45;43.84;101697.44;5002682;28;20559;-32
2023/06/11 07:12:18;;;;;;;3.67;2.75;;;;;;;26.46;43.61;101701.03;5004442;28;20045;-33
2023/06/11 07:14:45;;;;;;;5.07;3.47;;;;;;;26.46;43.76;101695.59;5003522;28;20527;-32
2023/06/11 07:17:11;;;;;;;4.22;3.20;;;;;;;26.45;43.60;101705.59;5004810;28;20100;-32
2023/06/11 07:19:38;;;;;;;3.58;2.90;;;;;;;26.45;43.79;101700.16;5003012;28;20322;-32
2023/06/11 07:22:05;;;;;;;4.25;3.65;;;;;;;26.46;43.91;101699.16;5005086;28;20112;-32
2023/06/11 07:24:31;;;;;;;4.10;3.38;;;;;;;26.46;43.63;101699.16;5004431;28;20046;-33
2023/06/11 07:26:58;;;;;;;5.80;3.17;;;;;;;26.47;43.64;101694.56;5003820;28;20123;-32
2023/06/11 07:29:25;;;;;;;3.35;2.90;;;;;;;26.46;43.92;101703.75;5000848;28;20042;-32
2023/06/11 07:31:52;;;;;;;3.90;3.20;;;;;;;26.46;43.77;101696.44;5035535;28;20057;-33
2023/06/11 07:34:20;;;;;;;3.85;3.20;;;;;;;26.47;44.06;101702.72;5005344;28;20057;-32
2023/06/11 07:36:46;;;;;;;3.42;2.70;;;;;;;26.47;43.89;101706.25;5005183;28;20389;-32
2023/06/11 07:39:13;;;;;;;3.60;3.10;;;;;;;26.47;43.85;101706.25;5001415;28;20116;-32
2023/06/11 07:41:40;;;;;;;3.47;3.17;;;;;;;26.47;43.68;101703.53;5035565;28;20051;-32
2023/06/11 07:44:06;;;;;;;4.35;3.17;;;;;;;26.48;43.85;101704.38;5004796;28;20129;-32
2023/06/11 07:46:33;;;;;;;5.15;3.15;;;;;;;26.48;43.73;101701.66;5002960;28;20435;-32
2023/06/11 07:48:59;;;;;;;3.47;2.92;;;;;;;26.48;43.93;101704.38;5002461;28;20397;-32
2023/06/11 07:51:26;;;;;;;3.47;3.15;;;;;;;26.48;43.96;101702.50;5002232;28;20212;-32
2023/06/11 07:53:56;;;;;;;3.72;3.15;;;;;;;26.48;43.80;101702.50;5004691;28;20057;-33
2023/06/11 07:56:23;;;;;;;4.95;3.03;;;;;;;26.49;43.91;101698.78;5000537;28;20046;-32
2023/06/11 07:58:50;;;;;;;3.90;3.42;;;;;;;26.49;43.92;101704.22;5001537;28;20438;-32
2023/06/11 08:01:16;;;;;;;5.03;3.13;;;;;;;26.50;43.89;101700.47;5001193;28;20058;-32
2023/06/11 08:03:43;;;;;;;4.60;3.50;;;;;;;26.51;43.81;101704.84;4999646;28;20109;-32
2023/06/11 08:06:10;;;;;;;3.22;2.67;;;;;;;26.51;43.88;101706.72;4999857;28;20542;-33
2023/06/11 08:08:37;;;;;;;3.75;3.15;;;;;;;26.52;44.04;101706.53;4998223;28;20057;-32
2023/06/11 08:11:03;;;;;;;3.50;3.13;;;;;;;26.52;43.75;101703.81;5002674;28;20406;-33
2023/06/11 08:13:34;;;;;;;3.47;2.90;;;;;;;26.53;43.56;101700.09;4994081;28;20072;-33
2023/06/11 08:16:01;;;;;;;4.15;3.00;;;;;;;26.53;43.94;101697.38;4992797;28;20337;-32
2023/06/11 08:18:28;;;;;;;3.50;3.05;;;;;;;26.54;43.57;101699.03;4995805;28;20086;-32
2023/06/11 08:20:55;;;;;;;3.40;2.90;;;;;;;26.54;43.97;101690.88;4992621;28;20046;-33
2023/06/11 08:23:21;;;;;;;3.97;3.17;;;;;;;26.55;43.72;101694.44;4996662;28;20155;-32
2023/06/11 08:25:48;;;;;;;4.85;3.50;;;;;;;26.55;43.81;101687.13;5025304;28;20100;-32
2023/06/11 08:28:14;;;;;;;4.13;2.97;;;;;;;26.56;43.99;101685.25;4991957;28;20081;-32
2023/06/11 08:30:41;;;;;;;3.72;3.03;;;;;;;26.56;43.94;101690.69;5006513;28;20064;-32
2023/06/11 08:33:09;;;;;;;4.63;2.90;;;;;;;26.56;43.92;101691.53;4999281;28;20062;-32
2023/06/11 08:35:35;;;;;;;4.75;3.45;;;;;;;26.56;43.85;101682.53;4998065;28;20043;-32
2023/06/11 08:38:02;;;;;;;4.55;3.25;;;;;;;26.58;43.97;101685.91;4999213;28;20065;-33
2023/06/11 08:40:29;;;;;;;5.45;3.38;;;;;;;26.57;44.08;101685.06;4996320;28;20274;-32
2023/06/11 08:42:55;;;;;;;3.90;3.42;;;;;;;26.57;43.83;101682.34;5002763;28;20069;-32
2023/06/11 08:45:22;;;;;;;3.38;3.08;;;;;;;26.58;44.07;101684.03;4996846;28;20108;-33
2023/06/11 08:47:52;;;;;;;3.85;3.47;;;;;;;26.58;43.88;101684.03;4997437;28;20550;-32
2023/06/11 08:50:21;;;;;;;3.13;2.70;;;;;;;26.58;43.82;101681.31;4990721;28;20073;-32
2023/06/11 08:52:51;;;;;;;5.13;3.90;;;;;;;26.59;43.91;101682.16;4994023;28;20119;-32
2023/06/11 08:55:18;;;;;;;3.55;3.00;;;;;;;26.60;43.87;101680.28;4999881;28;20050;-32
2023/06/11 08:57:46;;;;;;;3.72;3.33;;;;;;;26.59;43.85;101674.00;4999631;28;20172;-32
2023/06/11 09:00:14;;;;;;;4.45;3.25;;;;;;;26.61;43.97;101679.22;5001465;28;20081;-33
2023/06/11 09:02:41;;;;;;;3.83;3.17;;;;;;;26.61;43.83;101677.34;4998527;28;20430;-32
2023/06/11 09:05:08;;;;;;;4.47;3.67;;;;;;;26.62;44.03;101680.94;4997977;28;20077;-32
2023/06/11 09:07:36;;;;;;;3.60;3.20;;;;;;;26.63;44.05;101678.03;5000885;28;20128;-32
2023/06/11 09:10:10;;;;;;;3.13;2.83;;;;;;;26.63;43.95;101669.03;5000655;28;20053;-32
2023/06/11 09:12:37;;;;;;;3.97;3.25;;;;;;;26.65;44.12;101675.94;4997603;28;20057;-32
2023/06/11 09:15:05;;;;;;;3.33;3.03;;;;;;;26.66;43.83;101669.50;4999408;28;20104;-32
2023/06/11 09:17:42;;;;;;;4.40;3.25;;;;;;;26.67;43.92;101668.44;4999278;28;20051;-32
2023/06/11 09:20:11;;;;;;;3.92;3.45;;;;;;;26.70;43.92;101672.66;4999639;28;20077;-32
2023/06/11 09:22:41;;;;;;;4.70;3.10;;;;;;;26.71;44.07;101663.47;4999313;28;20062;-32
2023/06/11 09:25:16;;;;;;;3.80;3.35;;;;;;;26.73;44.31;101673.09;5002316;28;20073;-32
2023/06/11 09:27:45;;;;;;;3.90;3.50;;;;;;;26.76;44.06;101666.44;4998350;28;20054;-33
2023/06/11 09:30:16;;;;;;;4.53;3.50;;;;;;;26.79;44.10;101671.50;4998269;28;20315;-32
2023/06/11 09:32:46;;;;;;;3.70;3.22;;;;;;;26.82;44.19;101671.13;4998530;28;20328;-33
2023/06/11 09:35:14;;;;;;;4.25;3.13;;;;;;;26.85;44.40;101662.56;4998191;28;20130;-32
2023/06/11 09:37:50;;;;;;;3.83;2.97;;;;;;;26.89;44.25;101671.19;4996081;28;20116;-33
2023/06/11 09:40:19;;;;;;;3.20;2.90;;;;;;;26.92;43.82;101670.81;4995431;28;20441;-33
2023/06/11 09:42:48;;;;;;;3.20;2.90;;;;;;;26.96;43.83;101670.22;4994770;28;20133;-32
2023/06/11 09:45:17;;;;;;;3.40;3.10;;;;;;;26.97;44.53;101669.19;4996344;28;20062;-32
2023/06/11 09:47:46;;;;;;;3.70;3.05;;;;;;;27.01;44.36;101667.75;4996321;28;20394;-33
2023/06/11 09:50:17;;;;;;;4.03;2.90;;;;;;;27.05;43.96;101671.78;4997043;28;20056;-32
2023/06/11 09:52:45;;;;;;;3.60;3.30;;;;;;;27.07;44.35;101669.72;4991328;28;20058;-32
2023/06/11 09:55:13;;;;;;;4.15;3.25;;;;;;;27.11;44.30;101672.09;5001506;28;20134;-32
2023/06/11 09:57:41;;;;;;;3.78;3.17;;;;;;;27.14;44.33;101669.00;4993572;28;20081;-33
2023/06/11 10:00:13;;;;;;;4.20;2.88;;;;;;;27.17;44.35;101674.03;5007604;28;20104;-32
2023/06/11 10:02:42;;;;;;;3.73;3.33;;;;;;;27.19;43.97;101680.13;5006301;28;20061;-33
2023/06/11 10:05:10;;;;;;;4.53;2.97;;;;;;;27.22;44.44;101671.59;5006878;28;20052;-32
2023/06/11 10:07:48;;;;;;;3.60;2.97;;;;;;;27.22;43.95;101675.16;5008623;28;20057;-32
2023/06/11 10:10:19;;;;;;;3.78;3.17;;;;;;;27.26;44.29;101678.31;5003019;28;20097;-33
2023/06/11 10:12:53;;;;;;;3.55;2.97;;;;;;;27.28;44.38;101673.50;4994802;28;20220;-32
2023/06/11 10:15:24;;;;;;;3.63;3.25;;;;;;;27.31;44.10;101667.69;4997437;28;20054;-33
2023/06/11 10:17:52;;;;;;;3.03;2.65;;;;;;;27.34;44.15;101671.88;4993500;28;20046;-32
2023/06/11 10:20:27;;;;;;;3.78;2.92;;;;;;;27.35;44.12;101679.88;4999376;28;20050;-32
2023/06/11 10:23:04;;;;;;;3.33;3.00;;;;;;;27.37;43.79;101677.78;4999620;28;20059;-32
2023/06/11 10:25:38;;;;;;;3.45;3.15;;;;;;;27.40;43.99;101680.13;4997140;28;20127;-33
2023/06/11 10:28:06;;;;;;;3.17;2.88;;;;;;;27.42;44.25;101671.75;4998440;28;20050;-32
2023/06/11 10:30:32;;;;;;;3.60;3.10;;;;;;;27.44;43.83;101675.97;4998412;28;20077;-32
2023/06/11 10:33:00;;;;;;;4.90;3.40;;;;;;;27.46;44.40;101678.50;4997006;28;20394;-33
2023/06/11 10:35:32;;;;;;;4.07;2.75;;;;;;;27.48;44.05;101670.97;5000309;28;20129;-32
2023/06/11 10:38:04;;;;;;;3.10;2.80;;;;;;;27.50;44.43;101672.47;5000468;28;20101;-32
2023/06/11 10:40:35;;;;;;;3.25;2.70;;;;;;;27.51;44.04;101663.25;4999636;28;20473;-32
2023/06/11 10:43:11;;;;;;;3.10;2.80;;;;;;;27.54;43.61;101659.31;4998687;28;20058;-32
2023/06/11 10:45:38;;;;;;;3.58;3.03;;;;;;;27.56;44.31;101666.22;4999181;28;20438;-33
2023/06/11 10:48:05;;;;;;;4.60;3.35;;;;;;;27.59;44.10;101662.25;5002211;28;20054;-33
2023/06/11 10:50:32;;;;;;;3.53;3.22;;;;;;;27.60;43.82;101665.81;4998005;28;20157;-32
2023/06/11 10:53:08;;;;;;;4.07;3.33;;;;;;;27.62;43.77;101658.28;5002959;28;20050;-32
2023/06/11 10:55:35;;;;;;;4.10;3.00;;;;;;;27.63;44.34;101660.84;5000309;28;20058;-33
2023/06/11 10:58:02;;;;;;;3.65;2.78;;;;;;;27.65;44.48;101656.00;4999523;28;20055;-33
2023/06/11 11:00:32;;;;;;;3.42;2.83;;;;;;;27.67;43.70;101647.66;4998051;28;20054;-32
2023/06/11 11:03:03;;;;;;;3.85;3.00;;;;;;;27.68;44.05;101658.34;4999793;28;20149;-32
2023/06/11 11:05:31;;;;;;;2.63;2.33;;;;;;;27.70;43.90;101655.41;5000480;28;20060;-32
2023/06/11 11:08:00;;;;;;;3.28;2.80;;;;;;;27.71;44.25;101657.13;5001889;28;20045;-33
2023/06/11 11:10:28;;;;;;;4.20;2.95;;;;;;;27.73;44.22;101649.56;4998057;28;20050;-32
2023/06/11 11:12:55;;;;;;;3.22;2.70;;;;;;;27.75;44.16;101645.66;4997510;28;20593;-32
2023/06/11 11:15:21;;;;;;;3.78;3.00;;;;;;;27.76;43.71;101639.16;4996711;28;20467;-32
2023/06/11 11:17:50;;;;;;;3.65;3.08;;;;;;;27.77;44.05;101643.56;4992921;28;20096;-32
2023/06/11 11:20:19;;;;;;;3.83;2.95;;;;;;;27.80;43.99;101645.88;4997856;28;20354;-32
2023/06/11 11:22:54;;;;;;;4.30;3.10;;;;;;;27.84;43.67;101645.50;4995161;28;20054;-32
2023/06/11 11:25:24;;;;;;;4.15;3.20;;;;;;;27.85;43.70;101639.84;4999000;28;20050;-32
2023/06/11 11:27:50;;;;;;;5.05;3.00;;;;;;;27.87;43.17;101642.38;5004110;28;20402;-32